Terminal Aerodrome Forecast
Issued by NWS

Home | Current Version | Previous Version | Text Only | Print | Product List | Glossary On
Versions: 1 2 3 4 5 6 7 8 9 10 11 12 13 14 15 16 17 18 19 20 21 22 23 24 25 26 27 28 29 30 31 32 33 34 35
000
FTUS43 KDLH 250900 AAC
TAFHIB
TAF AMD
KHIB 250913Z 2509/2606 22004KT 1/4SM FG OVC001
      TEMPO 2509/2512 1/2SM FG OVC004
     FM251200 23004KT 1SM BR SCT002
      TEMPO 2512/2514 3SM BR
     FM251400 21005KT P6SM SCT010 SCT050
     FM251600 25010G15KT P6SM SCT030
     FM260000 28010KT P6SM SKC=

USA.gov is the U.S. government's official web portal to all federal, state and local government web resources and services.